Time;durP1;ratioP1;P1;durP2;ratioP2;P2;SDS_P1;SDS_P2;PMS_P1;PMS_P2;Temp;Humidity;BMP_temperature;BMP_pressure;BME280_temperature;BME280_humidity;BME280_pressure;Samples;Min_cycle;Max_cycle;Signal;HPM_P1;HPM_P2
2021/12/17 00:04:55;;;;;;;26.67;12.27;;;6.60;99.90;;;;;;5094818;28;20189;-73
2021/12/17 00:07:23;;;;;;;26.13;11.57;;;6.60;99.90;;;;;;5094051;28;20214;-76
2021/12/17 00:09:49;;;;;;;31.43;12.77;;;6.70;99.90;;;;;;5092747;28;20214;-76
2021/12/17 00:12:18;;;;;;;25.43;11.03;;;6.60;99.90;;;;;;5094134;28;20200;-74
2021/12/17 00:14:47;;;;;;;25.13;11.03;;;6.60;99.90;;;;;;5094402;28;20177;-76
2021/12/17 00:17:18;;;;;;;22.70;11.20;;;6.60;99.90;;;;;;5073832;28;20203;-76
2021/12/17 00:49:30;;;;;;;31.67;11.40;;;6.50;99.90;;;;;;5093718;28;20174;-74
2021/12/17 00:54:33;;;;;;;28.33;10.83;;;6.70;99.90;;;;;;5093787;28;20178;-71
2021/12/17 00:57:03;;;;;;;29.67;9.87;;;6.80;99.90;;;;;;5084120;28;20190;-70
2021/12/17 00:59:29;;;;;;;29.27;11.63;;;7.00;99.90;;;;;;5093040;28;20179;-73
2021/12/17 01:01:57;;;;;;;27.67;11.17;;;7.00;99.90;;;;;;5093217;28;20201;-76
2021/12/17 01:04:23;;;;;;;22.97;10.80;;;6.90;99.90;;;;;;5093262;28;20174;-76
2021/12/17 01:06:49;;;;;;;28.60;10.20;;;6.90;99.90;;;;;;5093179;28;20657;-75
2021/12/17 01:09:17;;;;;;;26.93;10.70;;;6.70;99.90;;;;;;5093101;28;20213;-75
2021/12/17 01:11:44;;;;;;;29.47;10.87;;;6.70;99.90;;;;;;5091930;28;20265;-76
2021/12/17 01:14:10;;;;;;;27.27;10.17;;;6.60;99.90;;;;;;5093560;28;20185;-74
2021/12/17 01:16:36;;;;;;;23.70;9.50;;;6.70;99.90;;;;;;5089000;28;20553;-74
2021/12/17 01:22:01;;;;;;;19.03;9.57;;;6.60;99.90;;;;;;5093398;28;20186;-74
2021/12/17 01:24:39;;;;;;;22.97;9.70;;;6.60;99.90;;;;;;5087131;28;20186;-73
2021/12/17 01:35:28;;;;;;;17.93;9.13;;;6.50;99.90;;;;;;5109597;28;20595;-72
2021/12/17 01:43:05;;;;;;;27.07;10.57;;;6.60;99.90;;;;;;5106005;28;20214;-73
2021/12/17 01:45:36;;;;;;;27.97;10.87;;;6.60;99.90;;;;;;5112930;28;20188;-72
2021/12/17 01:48:07;;;;;;;23.60;9.90;;;6.50;99.90;;;;;;5103256;28;20189;-74
2021/12/17 01:56:16;;;;;;;27.90;10.00;;;6.60;99.90;;;;;;5113046;28;20193;-73
2021/12/17 02:01:28;;;;;;;22.93;8.73;;;6.60;99.90;;;;;;5110585;28;20173;-73
2021/12/17 02:03:55;;;;;;;20.00;9.03;;;6.50;99.90;;;;;;5108946;28;20566;-73
2021/12/17 02:06:21;;;;;;;28.50;9.60;;;6.50;99.90;;;;;;5112045;28;20250;-72
2021/12/17 02:08:48;;;;;;;22.23;10.10;;;6.50;99.90;;;;;;5112082;28;20197;-73
2021/12/17 02:22:52;;;;;;;29.07;10.73;;;6.50;99.90;;;;;;5111867;28;20540;-73
2021/12/17 02:30:59;;;;;;;18.83;8.87;;;6.40;99.90;;;;;;5112398;28;20177;-73
2021/12/17 02:33:25;;;;;;;27.67;9.67;;;6.40;99.90;;;;;;5112187;28;20173;-73
2021/12/17 02:35:50;;;;;;;20.80;8.77;;;6.50;99.90;;;;;;5112402;28;20502;-73
2021/12/17 02:38:17;;;;;;;19.53;8.63;;;6.50;99.90;;;;;;5111544;28;20890;-73
2021/12/17 02:46:11;;;;;;;27.27;9.50;;;6.50;99.90;;;;;;5111945;28;20204;-73
2021/12/17 02:48:41;;;;;;;21.00;8.70;;;6.40;99.90;;;;;;5111494;28;20185;-73
2021/12/17 02:51:06;;;;;;;21.73;9.17;;;6.50;99.90;;;;;;5112087;28;20153;-73
2021/12/17 02:53:32;;;;;;;27.50;10.10;;;6.50;99.90;;;;;;5112059;28;20656;-73
2021/12/17 02:56:04;;;;;;;22.67;8.97;;;6.50;99.90;;;;;;5102706;28;20759;-73
2021/12/17 02:58:33;;;;;;;26.90;9.97;;;6.50;99.90;;;;;;5111677;28;20190;-72
2021/12/17 03:01:01;;;;;;;21.53;9.37;;;6.60;99.90;;;;;;5112066;28;20299;-73
2021/12/17 03:03:30;;;;;;;23.37;9.07;;;6.60;99.90;;;;;;5111937;28;20634;-72
2021/12/17 03:05:57;;;;;;;23.57;9.40;;;6.50;99.90;;;;;;5102495;28;20207;-73
2021/12/17 03:08:22;;;;;;;25.53;9.57;;;6.50;99.90;;;;;;5110234;28;20519;-72
2021/12/17 03:10:50;;;;;;;26.37;9.47;;;6.50;99.90;;;;;;5110566;28;20176;-72
2021/12/17 03:13:17;;;;;;;31.00;9.93;;;6.50;99.90;;;;;;5111665;28;20176;-74
2021/12/17 03:15:55;;;;;;;29.07;9.80;;;6.50;99.90;;;;;;5108610;28;20172;-72
2021/12/17 03:18:54;;;;;;;25.87;8.37;;;6.50;99.90;;;;;;5111327;28;20544;-73
2021/12/17 03:27:21;;;;;;;23.77;8.20;;;6.50;99.90;;;;;;5097854;28;20282;-72
2021/12/17 03:29:47;;;;;;;23.30;9.40;;;6.50;99.90;;;;;;5091066;28;20205;-73
2021/12/17 03:32:12;;;;;;;27.37;9.07;;;6.50;99.90;;;;;;5091242;28;20167;-73
2021/12/17 03:34:38;;;;;;;24.73;9.03;;;6.50;99.90;;;;;;5089171;28;20166;-73
2021/12/17 03:37:03;;;;;;;31.10;9.37;;;6.50;99.90;;;;;;5094917;28;20811;-73
2021/12/17 03:39:31;;;;;;;20.10;9.17;;;6.50;99.90;;;;;;5095113;28;20197;-73
2021/12/17 03:41:58;;;;;;;23.77;9.93;;;6.50;99.90;;;;;;5095387;28;20167;-74
2021/12/17 03:44:24;;;;;;;21.87;9.30;;;6.50;99.90;;;;;;5089669;28;20174;-74
2021/12/17 03:46:51;;;;;;;21.93;8.73;;;6.50;99.90;;;;;;5095098;28;20198;-74
2021/12/17 03:49:18;;;;;;;24.70;9.70;;;6.50;99.90;;;;;;5095206;28;20186;-73
2021/12/17 03:51:50;;;;;;;28.80;9.77;;;6.50;99.90;;;;;;5092359;28;20631;-74
2021/12/17 03:54:17;;;;;;;26.50;8.57;;;6.50;99.90;;;;;;5095708;28;20706;-74
2021/12/17 03:56:42;;;;;;;20.90;8.97;;;6.50;99.90;;;;;;5095509;28;20622;-73
2021/12/17 03:59:10;;;;;;;19.13;8.17;;;6.50;99.90;;;;;;5095346;28;20217;-73
2021/12/17 04:01:40;;;;;;;28.37;9.50;;;6.40;99.90;;;;;;5091051;28;20283;-73
2021/12/17 04:04:06;;;;;;;22.90;8.83;;;6.50;99.90;;;;;;5095113;28;20167;-73
2021/12/17 04:06:31;;;;;;;20.10;8.23;;;6.40;99.90;;;;;;5090157;28;20214;-73
2021/12/17 04:08:57;;;;;;;27.97;8.50;;;6.40;99.90;;;;;;5116856;22;20222;-72
2021/12/17 04:11:22;;;;;;;22.90;7.80;;;6.40;99.90;;;;;;5076001;28;20265;-70
2021/12/17 04:13:56;;;;;;;20.87;8.73;;;6.40;99.90;;;;;;5076403;28;20749;-70
2021/12/17 04:16:26;;;;;;;23.00;9.07;;;6.40;99.90;;;;;;5094169;28;20162;-70
2021/12/17 04:18:52;;;;;;;25.40;9.70;;;6.40;99.90;;;;;;5075877;28;20201;-70
2021/12/17 04:21:18;;;;;;;27.47;9.70;;;6.40;99.90;;;;;;5075983;28;20538;-70
2021/12/17 04:23:46;;;;;;;22.17;8.97;;;6.50;99.90;;;;;;5076117;28;20261;-70
2021/12/17 04:26:12;;;;;;;26.87;9.83;;;6.50;99.90;;;;;;5075946;28;20198;-70
2021/12/17 04:28:43;;;;;;;16.63;8.23;;;6.50;99.90;;;;;;5093822;28;20216;-70
2021/12/17 04:31:09;;;;;;;22.97;8.63;;;6.50;99.90;;;;;;5094157;28;20167;-71
2021/12/17 04:33:37;;;;;;;22.43;8.70;;;6.50;99.90;;;;;;5094103;28;20162;-71
2021/12/17 04:36:03;;;;;;;20.63;9.13;;;6.60;99.90;;;;;;5094094;28;20249;-71
2021/12/17 04:38:29;;;;;;;18.43;8.23;;;6.60;99.90;;;;;;5093542;28;20275;-72
2021/12/17 04:40:58;;;;;;;27.83;9.83;;;6.60;99.90;;;;;;5076004;28;20240;-70
2021/12/17 04:43:38;;;;;;;18.70;9.03;;;6.60;99.90;;;;;;5094371;28;20163;-71
2021/12/17 04:46:20;;;;;;;22.87;9.33;;;6.50;99.90;;;;;;5093692;28;20205;-71
2021/12/17 05:00:23;;;;;;;19.63;8.50;;;6.60;99.90;;;;;;5079784;28;20206;-72
2021/12/17 05:02:53;;;;;;;29.10;8.63;;;6.50;99.90;;;;;;5093528;28;20666;-70
2021/12/17 05:05:20;;;;;;;21.90;8.93;;;6.50;99.90;;;;;;5093484;28;20166;-71
2021/12/17 05:07:52;;;;;;;19.93;9.10;;;6.50;99.90;;;;;;5075443;28;20202;-72
2021/12/17 05:18:16;;;;;;;25.07;8.33;;;6.50;99.90;;;;;;5092284;28;20259;-71
2021/12/17 05:20:52;;;;;;;23.83;8.23;;;6.50;99.90;;;;;;5075356;28;20609;-71
2021/12/17 05:23:25;;;;;;;23.33;8.67;;;6.50;99.90;;;;;;5074867;28;20173;-71
2021/12/17 05:25:51;;;;;;;24.03;8.27;;;6.60;99.90;;;;;;5092918;28;20162;-71
2021/12/17 05:28:17;;;;;;;20.83;8.30;;;6.60;99.90;;;;;;5074322;28;20736;-72
2021/12/17 05:30:47;;;;;;;23.90;9.33;;;6.60;99.90;;;;;;5093084;28;20163;-71
2021/12/17 05:33:19;;;;;;;18.13;9.53;;;6.50;99.90;;;;;;5092794;28;20530;-71
2021/12/17 05:35:45;;;;;;;20.43;9.80;;;6.50;99.90;;;;;;5092740;28;20178;-72
2021/12/17 05:38:12;;;;;;;28.73;9.17;;;6.50;99.90;;;;;;5092342;28;20219;-71
2021/12/17 05:40:39;;;;;;;21.90;9.23;;;6.50;99.90;;;;;;5092866;28;20178;-72
2021/12/17 05:43:06;;;;;;;16.03;8.43;;;6.50;99.90;;;;;;5092676;28;20163;-70
2021/12/17 05:45:48;;;;;;;28.03;9.30;;;6.50;99.90;;;;;;5092753;28;20520;-72
2021/12/17 05:48:15;;;;;;;27.10;8.63;;;6.40;99.90;;;;;;5073893;28;20189;-71
2021/12/17 05:50:43;;;;;;;25.03;8.97;;;6.50;99.90;;;;;;5092738;28;20258;-70
2021/12/17 05:53:09;;;;;;;20.07;8.43;;;6.50;99.90;;;;;;5074111;28;20167;-71
2021/12/17 05:55:35;;;;;;;21.13;8.67;;;6.50;99.90;;;;;;5092449;28;20174;-71
2021/12/17 05:58:02;;;;;;;25.83;9.23;;;6.50;99.90;;;;;;5091255;28;20174;-71
2021/12/17 06:00:31;;;;;;;22.23;8.13;;;6.40;99.90;;;;;;5092480;28;20182;-71
2021/12/17 06:02:58;;;;;;;20.97;8.67;;;6.40;99.90;;;;;;5092149;28;20166;-70
2021/12/17 06:05:25;;;;;;;22.03;9.27;;;6.40;99.90;;;;;;5092363;28;20174;-70
2021/12/17 06:07:50;;;;;;;28.93;8.57;;;6.40;99.90;;;;;;5073707;28;20293;-71
2021/12/17 06:10:16;;;;;;;20.57;8.63;;;6.40;99.90;;;;;;5092262;28;20297;-71
2021/12/17 06:12:42;;;;;;;20.37;9.43;;;6.40;99.90;;;;;;5073931;28;20257;-71
2021/12/17 06:15:12;;;;;;;21.57;8.27;;;6.40;99.90;;;;;;5092226;28;20254;-70
2021/12/17 06:17:38;;;;;;;15.93;8.70;;;6.30;99.90;;;;;;5091893;28;20228;-71
2021/12/17 06:20:05;;;;;;;31.87;8.63;;;6.40;99.90;;;;;;5091859;28;20681;-70
2021/12/17 06:22:30;;;;;;;21.70;9.00;;;6.30;99.90;;;;;;5091707;28;20182;-72
2021/12/17 06:24:56;;;;;;;22.23;8.73;;;6.30;99.90;;;;;;5092014;28;20608;-70
2021/12/17 06:27:23;;;;;;;24.83;9.10;;;6.30;99.90;;;;;;5091761;28;20293;-71
2021/12/17 06:29:49;;;;;;;18.43;7.73;;;6.30;99.90;;;;;;5091690;28;20586;-72
2021/12/17 06:32:15;;;;;;;24.50;7.90;;;6.30;99.90;;;;;;5073711;28;20167;-71
2021/12/17 06:34:40;;;;;;;27.17;8.90;;;6.30;99.90;;;;;;5073961;28;20166;-71
2021/12/17 06:37:06;;;;;;;22.23;8.00;;;6.30;99.90;;;;;;5091763;28;20219;-71
2021/12/17 06:39:33;;;;;;;18.10;7.43;;;6.30;99.90;;;;;;5073354;28;20212;-71
2021/12/17 06:41:59;;;;;;;15.53;7.73;;;6.30;99.90;;;;;;5091740;28;20284;-71
2021/12/17 06:44:26;;;;;;;21.07;7.20;;;6.40;99.90;;;;;;5091735;28;20198;-71
2021/12/17 06:47:04;;;;;;;26.97;8.47;;;6.40;99.90;;;;;;5073431;28;20206;-71
2021/12/17 07:00:14;;;;;;;19.30;7.83;;;6.40;99.90;;;;;;5091618;28;20291;-71
2021/12/17 07:09:07;;;;;;;24.33;8.23;;;6.40;99.90;;;;;;5092041;28;20181;-70
2021/12/17 07:10:55;;;;;;;20.90;7.73;;;6.30;99.90;;;;;;5095430;28;20174;-70
2021/12/17 07:21:37;;;;;;;25.63;8.60;;;6.50;99.90;;;;;;5095503;28;20196;-70
2021/12/17 07:35:02;;;;;;;17.40;7.10;;;6.50;99.90;;;;;;5095314;28;20166;-70
2021/12/17 07:39:54;;;;;;;22.53;7.63;;;6.50;99.90;;;;;;5094709;28;20521;-70
2021/12/17 07:42:20;;;;;;;25.80;8.47;;;6.50;99.90;;;;;;5085799;28;20245;-71
2021/12/17 07:44:46;;;;;;;17.50;7.63;;;6.50;99.90;;;;;;5062417;28;20197;-71
2021/12/17 07:47:11;;;;;;;22.40;7.97;;;6.40;99.90;;;;;;5087390;28;20732;-71
2021/12/17 07:49:36;;;;;;;25.37;10.80;;;6.50;99.90;;;;;;5091797;28;20240;-70
2021/12/17 07:52:02;;;;;;;26.57;11.67;;;6.50;99.90;;;;;;5080604;28;20258;-72
2021/12/17 07:54:28;;;;;;;17.77;7.30;;;6.50;99.90;;;;;;5093445;28;20186;-70
2021/12/17 07:56:53;;;;;;;25.17;8.00;;;6.60;99.90;;;;;;5068510;28;20619;-70
2021/12/17 07:59:19;;;;;;;21.37;8.37;;;6.60;99.90;;;;;;5087305;28;20207;-72
2021/12/17 08:01:44;;;;;;;21.20;8.60;;;6.60;99.90;;;;;;5091090;28;20186;-71
2021/12/17 08:04:10;;;;;;;22.17;8.33;;;6.60;99.90;;;;;;5085587;28;20174;-71
2021/12/17 08:06:37;;;;;;;20.67;7.87;;;6.60;99.90;;;;;;5091745;28;20251;-71
2021/12/17 08:09:05;;;;;;;33.00;11.13;;;6.60;99.90;;;;;;5066812;28;20218;-70
2021/12/17 08:11:37;;;;;;;20.67;7.27;;;6.60;99.90;;;;;;5066355;28;20632;-71
2021/12/17 08:14:06;;;;;;;23.87;7.30;;;6.60;99.90;;;;;;5087993;28;20661;-71
2021/12/17 08:16:43;;;;;;;19.07;7.10;;;6.70;99.90;;;;;;5082657;28;20179;-72
2021/12/17 08:24:54;;;;;;;27.33;7.97;;;6.60;99.90;;;;;;5082933;28;20863;-71
2021/12/17 08:27:28;;;;;;;26.73;11.70;;;6.60;99.90;;;;;;5067580;28;20186;-72
2021/12/17 08:30:20;;;;;;;30.50;12.50;;;6.60;99.90;;;;;;5070263;28;20300;-72
2021/12/17 08:32:46;;;;;;;19.57;8.10;;;6.70;99.90;;;;;;5071600;28;20203;-72
2021/12/17 08:35:12;;;;;;;27.23;8.77;;;6.70;99.90;;;;;;5090721;28;20257;-72
2021/12/17 08:37:38;;;;;;;27.53;11.50;;;6.60;99.90;;;;;;5090100;28;20194;-70
2021/12/17 08:40:05;;;;;;;18.60;8.80;;;6.70;99.90;;;;;;5089067;28;20210;-70
2021/12/17 08:42:30;;;;;;;24.17;8.37;;;6.70;99.90;;;;;;5092037;28;20716;-71
2021/12/17 08:44:56;;;;;;;29.80;10.00;;;6.80;99.90;;;;;;5071678;28;20191;-71
2021/12/17 08:47:22;;;;;;;18.93;6.57;;;6.80;99.90;;;;;;5068983;28;20210;-70
2021/12/17 08:49:48;;;;;;;18.77;6.60;;;6.80;99.90;;;;;;5090181;28;20220;-70
2021/12/17 08:52:14;;;;;;;23.27;11.00;;;6.80;99.90;;;;;;5090862;28;20189;-70
2021/12/17 08:54:40;;;;;;;17.67;7.00;;;6.80;99.90;;;;;;5070894;28;20278;-70
2021/12/17 08:57:06;;;;;;;15.13;6.30;;;6.70;99.90;;;;;;5090259;28;20729;-71
2021/12/17 08:59:32;;;;;;;21.37;6.83;;;6.80;99.90;;;;;;5089779;28;20241;-70
2021/12/17 09:01:58;;;;;;;15.43;5.93;;;6.80;99.90;;;;;;5074351;28;20214;-71
2021/12/17 09:04:27;;;;;;;16.83;6.67;;;6.80;99.90;;;;;;5071044;28;20206;-70
2021/12/17 09:06:53;;;;;;;17.07;6.33;;;6.80;99.90;;;;;;5088358;28;20595;-70
2021/12/17 09:09:20;;;;;;;18.57;6.40;;;6.80;99.90;;;;;;5089184;28;20608;-74
2021/12/17 09:11:46;;;;;;;14.70;5.70;;;6.90;99.90;;;;;;5093285;28;20170;-76
2021/12/17 09:14:12;;;;;;;18.87;6.83;;;6.90;99.90;;;;;;5078509;28;20179;-71
2021/12/17 09:16:38;;;;;;;20.63;7.20;;;6.90;99.90;;;;;;5073474;28;20182;-71
2021/12/17 09:19:04;;;;;;;18.87;6.80;;;7.00;99.90;;;;;;5072370;28;20187;-71
2021/12/17 09:21:31;;;;;;;18.27;6.10;;;6.90;99.90;;;;;;5054817;28;20282;-71
2021/12/17 09:23:57;;;;;;;18.03;6.37;;;7.00;99.90;;;;;;5072549;28;20187;-71
2021/12/17 09:26:22;;;;;;;20.23;6.50;;;7.00;99.90;;;;;;5072812;28;20203;-73
2021/12/17 09:28:49;;;;;;;15.03;6.30;;;7.00;99.90;;;;;;5054293;28;20202;-75
2021/12/17 09:31:15;;;;;;;16.70;6.70;;;7.00;99.90;;;;;;5054153;28;20266;-72
2021/12/17 09:33:43;;;;;;;13.37;5.30;;;7.00;99.90;;;;;;5054000;28;20190;-73
2021/12/17 09:36:09;;;;;;;16.83;6.80;;;7.00;99.90;;;;;;5072467;28;20190;-73
2021/12/17 09:38:35;;;;;;;15.77;5.47;;;7.00;99.90;;;;;;5053862;28;20203;-75
2021/12/17 09:41:01;;;;;;;14.00;5.53;;;7.00;99.90;;;;;;5072314;28;20558;-74
2021/12/17 09:43:29;;;;;;;18.27;6.67;;;7.00;99.90;;;;;;5054114;28;20270;-74
2021/12/17 09:45:58;;;;;;;16.77;4.87;;;7.00;99.90;;;;;;5076670;28;20555;-71
2021/12/17 09:48:25;;;;;;;38.90;18.57;;;7.00;99.90;;;;;;5056084;28;20583;-70
2021/12/17 09:50:52;;;;;;;17.07;5.80;;;7.00;99.90;;;;;;5054435;28;20231;-70
2021/12/17 09:53:24;;;;;;;19.43;6.13;;;7.00;99.90;;;;;;5109177;27;20599;-70
2021/12/17 09:55:51;;;;;;;16.23;5.80;;;7.00;99.90;;;;;;5108157;28;20186;-73
2021/12/17 09:58:17;;;;;;;14.87;5.97;;;7.10;99.90;;;;;;5108702;28;20203;-73
2021/12/17 10:00:43;;;;;;;11.93;5.13;;;7.10;99.90;;;;;;5109208;28;20165;-75
2021/12/17 10:03:09;;;;;;;12.83;4.40;;;7.10;99.90;;;;;;5108885;28;20181;-72
2021/12/17 10:05:39;;;;;;;9.63;4.70;;;7.10;99.90;;;;;;5108501;28;20633;-73
2021/12/17 10:08:13;;;;;;;13.77;4.80;;;7.10;99.90;;;;;;5109666;28;20603;-73
2021/12/17 10:10:45;;;;;;;34.50;12.23;;;7.10;99.90;;;;;;5105373;22;20225;-72
2021/12/17 10:13:22;;;;;;;29.90;13.67;;;7.00;99.90;;;;;;5068940;28;20203;-76
2021/12/17 10:16:01;;;;;;;17.43;6.33;;;7.10;99.90;;;;;;5067585;28;20175;-72
2021/12/17 10:18:37;;;;;;;20.77;6.57;;;7.20;99.90;;;;;;5068037;28;20754;-72
2021/12/17 10:21:20;;;;;;;21.63;6.83;;;7.20;99.90;;;;;;5074145;28;20202;-70
2021/12/17 10:23:46;;;;;;;17.57;6.47;;;7.20;99.90;;;;;;5070409;28;20171;-72
2021/12/17 10:26:18;;;;;;;14.17;5.80;;;7.20;99.90;;;;;;5068708;28;20183;-73
2021/12/17 10:29:03;;;;;;;14.03;5.57;;;7.20;99.90;;;;;;5068375;28;20182;-75
2021/12/17 10:31:29;;;;;;;16.53;5.57;;;7.20;99.90;;;;;;5069083;28;20202;-77
2021/12/17 10:33:59;;;;;;;20.17;6.13;;;7.20;99.90;;;;;;5068364;28;20218;-72
2021/12/17 10:36:37;;;;;;;10.13;4.23;;;7.20;99.90;;;;;;5069249;28;20167;-70
2021/12/17 10:39:04;;;;;;;13.97;5.13;;;7.20;99.90;;;;;;5068015;28;20539;-72
2021/12/17 10:41:31;;;;;;;12.77;5.43;;;7.30;99.90;;;;;;5068129;28;20179;-73
2021/12/17 10:44:07;;;;;;;20.70;5.80;;;7.30;99.90;;;;;;5068048;28;20178;-73
2021/12/17 10:46:35;;;;;;;19.83;6.67;;;7.30;99.90;;;;;;5066702;28;20685;-72
2021/12/17 10:54:15;;;;;;;12.03;4.73;;;7.40;99.90;;;;;;5067776;28;20691;-72
2021/12/17 10:56:54;;;;;;;16.07;5.03;;;7.40;99.90;;;;;;5066201;28;20183;-70
2021/12/17 10:59:26;;;;;;;13.67;3.90;;;7.50;99.90;;;;;;5066579;28;20210;-71
2021/12/17 11:02:05;;;;;;;12.23;4.57;;;7.50;99.90;;;;;;5068144;28;20186;-72
2021/12/17 11:04:33;;;;;;;15.37;4.90;;;7.50;99.90;;;;;;5060253;28;20266;-71
2021/12/17 11:07:04;;;;;;;19.10;5.33;;;7.60;99.90;;;;;;5061316;28;20175;-68
2021/12/17 11:09:46;;;;;;;23.10;10.97;;;7.60;99.90;;;;;;5066174;28;20207;-68
2021/12/17 11:12:13;;;;;;;13.50;4.70;;;7.60;99.90;;;;;;5059917;28;20214;-71
2021/12/17 11:14:42;;;;;;;13.57;4.60;;;7.60;99.90;;;;;;5064463;28;20577;-69
2021/12/17 11:17:12;;;;;;;12.93;4.80;;;7.60;99.90;;;;;;5060295;28;20184;-69
2021/12/17 11:19:39;;;;;;;13.20;5.37;;;7.60;99.90;;;;;;5059092;28;20291;-69
2021/12/17 11:22:05;;;;;;;16.83;4.97;;;7.60;99.90;;;;;;5057313;28;20329;-70
2021/12/17 11:24:34;;;;;;;19.27;7.87;;;7.60;99.90;;;;;;5053739;28;20664;-69
2021/12/17 11:27:02;;;;;;;15.90;5.40;;;7.60;99.90;;;;;;5053324;28;20180;-68
2021/12/17 11:29:28;;;;;;;14.07;5.53;;;7.50;99.90;;;;;;5051717;28;20239;-69
2021/12/17 11:31:54;;;;;;;13.90;4.63;;;7.60;99.90;;;;;;5053299;28;20233;-70
2021/12/17 11:34:20;;;;;;;11.00;3.93;;;7.50;99.90;;;;;;5053102;28;20172;-69
2021/12/17 11:36:47;;;;;;;11.97;4.17;;;7.50;99.90;;;;;;5051754;28;20180;-69
2021/12/17 11:39:24;;;;;;;12.67;4.40;;;7.50;99.90;;;;;;5049498;28;20333;-71
2021/12/17 11:42:18;;;;;;;12.50;4.43;;;7.50;99.90;;;;;;5051352;28;20840;-74
2021/12/17 11:44:53;;;;;;;14.27;4.07;;;7.70;99.90;;;;;;5053605;28;20180;-69
2021/12/17 11:47:19;;;;;;;10.80;3.77;;;7.70;99.90;;;;;;5050779;28;20184;-75
2021/12/17 11:49:47;;;;;;;17.87;4.30;;;7.70;99.90;;;;;;5057385;28;20603;-69
2021/12/17 11:52:14;;;;;;;19.17;4.93;;;7.70;99.90;;;;;;5081008;28;20194;-71
2021/12/17 11:54:40;;;;;;;13.23;4.90;;;7.70;99.90;;;;;;5071979;28;20179;-70
2021/12/17 11:57:12;;;;;;;15.80;6.47;;;7.70;99.90;;;;;;5073059;28;20206;-69
2021/12/17 11:59:45;;;;;;;17.17;5.03;;;7.70;99.90;;;;;;5070817;28;20206;-69
2021/12/17 12:02:22;;;;;;;15.40;4.27;;;7.70;99.90;;;;;;5068589;28;20632;-71
2021/12/17 12:04:52;;;;;;;17.07;4.43;;;7.70;99.90;;;;;;5073285;28;20182;-71
2021/12/17 12:07:19;;;;;;;14.57;3.80;;;7.70;99.90;;;;;;5072743;28;20193;-72
2021/12/17 12:10:13;;;;;;;12.10;3.73;;;7.70;99.90;;;;;;5072457;28;20579;-71
2021/12/17 12:12:38;;;;;;;15.03;4.70;;;7.70;99.90;;;;;;5072770;28;20227;-72
2021/12/17 12:15:28;;;;;;;13.87;5.93;;;7.60;99.90;;;;;;5069791;28;20446;-71
2021/12/17 12:18:10;;;;;;;19.37;5.90;;;7.80;99.90;;;;;;5070321;28;20402;-70
2021/12/17 12:20:45;;;;;;;19.70;5.97;;;7.80;99.90;;;;;;5071384;28;20228;-70
2021/12/17 12:23:18;;;;;;;18.53;8.20;;;7.80;99.90;;;;;;5061295;28;20171;-72
2021/12/17 12:25:46;;;;;;;17.17;7.10;;;7.80;99.90;;;;;;5070576;28;20171;-70
2021/12/17 12:28:14;;;;;;;19.60;8.37;;;7.90;99.90;;;;;;5071726;28;20171;-72
2021/12/17 12:30:43;;;;;;;15.77;5.13;;;7.70;99.90;;;;;;5071436;28;20266;-69
2021/12/17 12:33:10;;;;;;;15.07;6.10;;;7.80;99.90;;;;;;5072250;28;20288;-68
2021/12/17 12:35:36;;;;;;;25.33;11.47;;;7.80;99.90;;;;;;5071395;28;20209;-73
2021/12/17 12:38:20;;;;;;;12.93;4.17;;;7.80;99.90;;;;;;5064503;28;20418;-72
2021/12/17 12:40:56;;;;;;;16.20;5.73;;;7.80;99.90;;;;;;5063511;28;20539;-72
2021/12/17 12:43:31;;;;;;;15.87;5.87;;;7.80;99.90;;;;;;5065316;28;20199;-73
2021/12/17 12:45:57;;;;;;;15.03;5.40;;;7.80;99.90;;;;;;5057483;28;20182;-74
2021/12/17 12:48:39;;;;;;;10.67;4.37;;;7.90;99.90;;;;;;5050802;28;20187;-72
2021/12/17 12:51:21;;;;;;;16.17;4.70;;;7.80;99.90;;;;;;5051185;28;20826;-73
2021/12/17 12:54:08;;;;;;;17.40;5.90;;;7.80;99.90;;;;;;5061167;28;20175;-71
2021/12/17 12:56:38;;;;;;;11.60;4.20;;;7.80;99.90;;;;;;5072200;28;20167;-74
2021/12/17 12:59:06;;;;;;;12.87;4.40;;;7.80;99.90;;;;;;5071561;28;20215;-73
2021/12/17 13:01:32;;;;;;;13.53;3.80;;;7.90;99.90;;;;;;5072149;28;20187;-75
2021/12/17 13:03:58;;;;;;;16.87;8.30;;;7.90;99.90;;;;;;5071915;28;20620;-72
2021/12/17 13:06:25;;;;;;;16.60;7.83;;;7.90;99.90;;;;;;5071903;28;20206;-71
2021/12/17 13:08:55;;;;;;;10.70;4.27;;;7.90;99.90;;;;;;5071482;28;20179;-74
2021/12/17 13:11:21;;;;;;;15.33;5.37;;;7.90;99.90;;;;;;5055610;28;20298;-73
2021/12/17 13:13:57;;;;;;;15.40;3.77;;;7.90;99.90;;;;;;5050508;28;20249;-71
2021/12/17 13:22:01;;;;;;;12.83;3.50;;;7.90;99.90;;;;;;5051987;28;20663;-72
2021/12/17 13:24:32;;;;;;;9.47;3.43;;;7.90;99.90;;;;;;5052594;28;20180;-74
2021/12/17 13:27:09;;;;;;;13.47;4.10;;;7.90;99.90;;;;;;5070137;28;20179;-71
2021/12/17 13:29:38;;;;;;;14.37;4.00;;;7.90;99.90;;;;;;5059594;28;20593;-71
2021/12/17 13:32:07;;;;;;;9.33;4.07;;;7.90;99.90;;;;;;5051523;28;20203;-76
2021/12/17 13:34:42;;;;;;;10.87;3.80;;;7.90;99.90;;;;;;5051644;28;20217;-72
2021/12/17 13:37:20;;;;;;;12.43;4.07;;;7.90;99.90;;;;;;5051517;28;20192;-72
2021/12/17 13:39:58;;;;;;;10.70;3.77;;;7.90;99.90;;;;;;5051277;28;20238;-70
2021/12/17 13:42:28;;;;;;;11.43;4.43;;;7.90;99.90;;;;;;5051406;28;20570;-71
2021/12/17 13:44:59;;;;;;;8.13;3.30;;;7.90;99.90;;;;;;5059260;28;20195;-71
2021/12/17 13:47:35;;;;;;;11.87;3.97;;;7.80;99.90;;;;;;5051338;28;20183;-71
2021/12/17 13:50:10;;;;;;;8.80;4.27;;;7.80;99.90;;;;;;5050957;28;20183;-71
2021/12/17 13:52:55;;;;;;;18.80;4.20;;;7.90;99.90;;;;;;5049973;28;20207;-71
2021/12/17 13:55:27;;;;;;;12.53;4.50;;;7.90;99.90;;;;;;5051517;28;20583;-72
2021/12/17 13:57:53;;;;;;;12.00;4.63;;;7.90;99.90;;;;;;5057065;28;20700;-73
2021/12/17 14:00:25;;;;;;;9.47;3.20;;;7.80;99.90;;;;;;5063994;28;20622;-73
2021/12/17 14:02:54;;;;;;;15.63;4.40;;;7.80;99.90;;;;;;5061870;28;20171;-75
2021/12/17 14:05:29;;;;;;;11.77;3.57;;;7.70;99.90;;;;;;5070926;28;20186;-75
2021/12/17 14:08:00;;;;;;;13.43;4.23;;;7.60;99.90;;;;;;5069972;28;20166;-74
2021/12/17 14:10:34;;;;;;;13.80;3.83;;;7.60;99.90;;;;;;5069574;28;20305;-74
2021/12/17 14:13:01;;;;;;;12.10;3.87;;;7.60;99.90;;;;;;5070664;28;20241;-74
2021/12/17 14:15:29;;;;;;;11.57;4.40;;;7.50;99.90;;;;;;5070847;28;20639;-74
2021/12/17 14:18:00;;;;;;;9.00;4.00;;;7.50;99.90;;;;;;5064554;28;20239;-74
2021/12/17 14:20:28;;;;;;;10.10;3.70;;;7.50;99.90;;;;;;5049372;28;20184;-74
2021/12/17 14:23:04;;;;;;;14.30;4.60;;;7.50;99.90;;;;;;5050668;28;20250;-75
2021/12/17 14:25:45;;;;;;;14.10;4.43;;;7.40;99.90;;;;;;5050943;28;20167;-75
2021/12/17 14:28:25;;;;;;;10.17;4.13;;;7.40;99.90;;;;;;5050049;28;20167;-75
2021/12/17 14:31:00;;;;;;;10.70;4.10;;;7.40;99.90;;;;;;5049265;28;20207;-75
2021/12/17 14:33:31;;;;;;;9.50;4.00;;;7.40;99.90;;;;;;5051061;28;20207;-75
2021/12/17 14:36:01;;;;;;;13.47;4.57;;;7.40;99.90;;;;;;5050989;28;20537;-75
2021/12/17 14:38:37;;;;;;;11.17;3.47;;;7.40;99.90;;;;;;5051473;28;20621;-76
2021/12/17 14:41:06;;;;;;;9.73;3.90;;;7.40;99.90;;;;;;5054712;28;20241;-75
2021/12/17 14:43:49;;;;;;;8.60;3.27;;;7.40;99.90;;;;;;5052905;28;20187;-75
2021/12/17 14:49:03;;;;;;;11.37;3.97;;;7.30;99.90;;;;;;5054294;28;20168;-74
2021/12/17 14:57:48;;;;;;;11.47;3.87;;;7.30;99.90;;;;;;5054290;28;20212;-73
2021/12/17 15:05:28;;;;;;;15.00;4.30;;;7.30;99.90;;;;;;5075492;28;20213;-76
2021/12/17 15:07:56;;;;;;;15.33;3.57;;;7.40;99.90;;;;;;5076294;28;20171;-73
2021/12/17 15:10:23;;;;;;;7.53;3.23;;;7.40;99.90;;;;;;5075636;28;20217;-73
2021/12/17 15:12:51;;;;;;;9.17;3.03;;;7.30;99.90;;;;;;5072403;28;20245;-75
2021/12/17 15:15:22;;;;;;;10.60;2.67;;;7.30;99.90;;;;;;5072739;28;20858;-75
2021/12/17 15:17:50;;;;;;;13.27;3.33;;;7.30;99.90;;;;;;5073486;28;20210;-74
2021/12/17 15:20:18;;;;;;;11.10;3.63;;;7.30;99.90;;;;;;5073721;28;20187;-75
2021/12/17 15:22:44;;;;;;;10.97;3.50;;;7.30;99.90;;;;;;5072194;28;20277;-74
2021/12/17 15:25:12;;;;;;;10.47;3.87;;;7.30;99.90;;;;;;5071998;28;20209;-72
2021/12/17 15:27:39;;;;;;;5.33;2.73;;;7.30;99.90;;;;;;5071769;28;20179;-76
2021/12/17 15:30:08;;;;;;;9.80;3.27;;;7.30;99.90;;;;;;5071850;28;20603;-72
2021/12/17 15:32:33;;;;;;;9.07;2.87;;;7.30;99.90;;;;;;5073270;28;20948;-75
2021/12/17 15:34:59;;;;;;;6.67;3.17;;;7.20;99.90;;;;;;5073522;28;20269;-74
2021/12/17 15:37:25;;;;;;;10.63;3.20;;;7.20;99.90;;;;;;5073313;28;20203;-74
2021/12/17 15:39:50;;;;;;;8.53;3.23;;;7.20;99.90;;;;;;5072913;28;20596;-75
2021/12/17 15:42:16;;;;;;;9.87;3.47;;;7.20;99.90;;;;;;5073315;28;20171;-75
2021/12/17 15:44:41;;;;;;;11.63;3.37;;;7.20;99.90;;;;;;5073272;28;20182;-74
2021/12/17 15:47:08;;;;;;;13.87;4.17;;;7.20;99.90;;;;;;5071905;28;20659;-72
2021/12/17 15:49:37;;;;;;;11.87;4.57;;;7.20;99.90;;;;;;5072350;28;20190;-73
2021/12/17 15:52:05;;;;;;;11.63;4.10;;;7.30;99.90;;;;;;5073138;28;20194;-71
2021/12/17 15:54:32;;;;;;;10.77;4.27;;;7.30;99.90;;;;;;5059960;28;20195;-71